Otay (75) Station Data

Red Flag Warning: No
Fire Weather Zone: 250
SDGE Region: Eastern
Lat/Lon: 32.72/-116.928

Observations

Time Wind Speed/Gust Temp(F) RH Fuel Moist Fuel Temp(F) Dewpt(F) Tmax(F) Tmin(F) Accum Precip 10-min Precip SL Press(mb)
3/29 8:00am 80 1 G 3 58° 29% - - 27° 62.4° 53.2° - - -
3/29 7:50am 58 1 G 3 58° 31% - - 27° 62.4° 53.2° - - -
3/29 7:40am 130 3 G 8 61° 24% - - 24° 62.4° 53.2° - - -
3/29 7:30am 0 0 G 0 59° 23% - - 22° 62.4° 53.2° - - -
3/29 7:20am 58 1 G 3 58° 26% - - 23° 62.4° 53.2° - - -
3/29 7:10am 76 3 G 4 58° 25% - - 23° 62.4° 53.2° - - -
3/29 7:00am 116 3 G 5 62° 21% - - 22° 62.3° 53.2° - - -
3/29 6:50am 122 1 G 6 60° 22% - - 21° 61.6° 53.2° - - -
3/29 6:40am 65 2 G 4 60° 23% - - 22° 61.6° 53.2° - - -
3/29 6:30am 128 5 G 9 61° 21% - - 21° 61.6° 53.2° - - -
3/29 6:20am 112 5 G 9 59° 24% - - 22° 61.6° 53.2° - - -
3/29 6:10am 118 6 G 11 60° 24% - - 22° 61.6° 53.2° - - -
3/29 6:00am 135 8 G 11 60° 24% - - 22° 61.6° 53.2° - - -
3/29 5:50am 121 7 G 10 58° 27% - - 25° 61.6° 53.2° - - -
3/29 5:40am 129 10 G 12 59° 26% - - 24° 61.6° 53.2° - - -
3/29 5:30am 130 9 G 13 60° 25% - - 24° 61.6° 53.2° - - -
3/29 5:20am 136 7 G 12 58° 27% - - 25° 61.6° 53.2° - - -
3/29 5:10am 99 2 G 2 54° 41% - - 31° 61.6° 53.2° - - -
3/29 5:00am 54 3 G 4 54° 44% - - 33° 61.6° 53.2° - - -
3/29 4:50am 0 0 G 0 55° 43% - - 33° 61.6° 53.5° - - -
3/29 4:40am 42 1 G 4 56° 41% - - 33° 61.6° 53.5° - - -
3/29 4:30am 59 1 G 4 57° 41% - - 33° 61.6° 53.5° - - -
3/29 4:20am 159 4 G 6 58° 39% - - 33° 61.6° 53.5° - - -
3/29 4:10am 209 0 G 2 54° 49% - - 35° 61° 53.7° - - -
3/29 4:00am 0 0 G 0 56° 46% - - 35° 61° 54.1° - - -
3/29 3:50am 87 1 G 4 59° 32% - - 29° 61° 54.6° - - -
3/29 3:40am 120 5 G 10 59° 29% - - 28° 61° 54.6° - - -
3/29 3:30am 127 9 G 12 59° 31% - - 28° 61° 54.6° - - -
3/29 3:20am 127 7 G 11 59° 32% - - 30° 61° 54.6° - - -
3/29 3:10am 107 3 G 7 59° 37% - - 33° 61° 54.6° - - -
3/29 3:00am 103 6 G 10 59° 37% - - 33° 61° 54.6° - - -
3/29 2:50am 124 8 G 10 60° 37% - - 33° 61° 54.6° - - -
3/29 2:40am 117 6 G 9 59° 41% - - 36° 61° 54.6° - - -
3/29 2:30am 119 6 G 9 59° 47% - - 38° 61° 54.6° - - -
3/29 2:20am 109 6 G 9 59° 51% - - 41° 61° 54.6° - - -
3/29 2:10am 119 5 G 10 58° 53% - - 41° 61° 54.6° - - -
3/29 2:00am 58 3 G 4 56° 60% - - 42° 61° 54.6° - - -
3/29 1:50am 65 4 G 6 55° 62% - - 43° 61° 54.6° - - -
3/29 1:40am 93 5 G 9 56° 60% - - 42° 61° 54.6° - - -
3/29 1:30am 99 6 G 10 58° 55% - - 42° 61° 55.8° - - -
3/29 1:20am 123 8 G 11 60° 52% - - 42° 61° 57.4° - - -
3/29 1:10am 127 8 G 10 60° 52% - - 42° 61° 57.4° - - -
3/29 1:00am 125 8 G 10 60° 54% - - 43° 60.2° 57.4° - - -
3/29 12:50am 128 9 G 12 60° 54% - - 43° 60.1° 57.4° - - -
3/29 12:40am 130 10 G 12 59° 56% - - 44° 59.9° 57.4° - - -
3/29 12:30am 126 10 G 14 59° 57% - - 43° 59.1° 57.4° - - -
3/29 12:20am 126 9 G 12 58° 57% - - 43° 58.7° 57.4° - - -
3/29 12:10am 119 9 G 12 58° 58% - - 43° 58.3° 57.4° - - -
3/29 12:00am 121 8 G 11 58° 59% - - 43° 71.5° 48.3° - - -
3/28 11:50pm 129 8 G 11 58° 58% - - 43° 71.5° 48.3° - - -
3/28 11:40pm 132 7 G 9 58° 54% - - 42° 71.5° 48.3° - - -
3/28 11:30pm 135 7 G 9 59° 51% - - 41° 71.5° 48.3° - - -
3/28 11:20pm 134 6 G 8 59° 44% - - 38° 71.5° 48.3° - - -
3/28 11:10pm 138 5 G 6 59° 42% - - 36° 71.5° 48.3° - - -
3/28 11:00pm 130 4 G 5 59° 44% - - 37° 71.5° 48.3° - - -
3/28 10:50pm 118 4 G 5 59° 47% - - 38° 71.5° 48.3° - - -
3/28 10:40pm 85 2 G 4 59° 48% - - 39° 71.5° 48.3° - - -
3/28 10:30pm 75 1 G 3 60° 41% - - 36° 71.5° 48.3° - - -
3/28 10:20pm 118 0 G 2 61° 38% - - 35° 71.5° 48.3° - - -
3/28 10:10pm 132 3 G 4 61° 39% - - 36° 71.5° 48.3° - - -
3/28 10:00pm 133 3 G 5 60° 42% - - 37° 71.5° 48.3° - - -
3/28 9:50pm 135 4 G 5 61° 40% - - 36° 71.5° 48.3° - - -
3/28 9:40pm 144 3 G 5 61° 39% - - 35° 71.5° 48.3° - - -
3/28 9:30pm 137 4 G 6 60° 41% - - 37° 71.5° 48.3° - - -
3/28 9:20pm 133 4 G 5 61° 38% - - 35° 71.5° 48.3° - - -
3/28 9:10pm 143 1 G 4 61° 36% - - 34° 71.5° 48.3° - - -
3/28 9:00pm 157 1 G 3 61° 36% - - 34° 71.5° 48.3° - - -
3/28 8:50pm 159 3 G 5 60° 41% - - 36° 71.5° 48.3° - - -
3/28 8:40pm 196 5 G 6 61° 39% - - 36° 71.5° 48.3° - - -
3/28 8:30pm 198 4 G 6 61° 40% - - 36° 71.5° 48.3° - - -
3/28 8:20pm 204 3 G 5 61° 41% - - 37° 71.5° 48.3° - - -
3/28 8:10pm 201 5 G 6 60° 43% - - 38° 71.5° 48.3° - - -
3/28 8:00pm 206 6 G 7 60° 45% - - 39° 71.5° 48.3° - - -
3/28 7:50pm 210 6 G 7 60° 46% - - 39° 71.5° 48.3° - - -
3/28 7:40pm 229 4 G 7 61° 46% - - 39° 71.5° 48.3° - - -
3/28 7:30pm 215 5 G 7 61° 47% - - 40° 71.5° 48.3° - - -
3/28 7:20pm 218 5 G 8 61° 46% - - 41° 71.5° 48.3° - - -
3/28 7:10pm 231 6 G 10 62° 45% - - 41° 71.5° 48.3° - - -
3/28 7:00pm 231 6 G 8 63° 44% - - 41° 71.5° 48.3° - - -
3/28 6:50pm 236 6 G 10 64° 43% - - 41° 71.5° 48.3° - - -
3/28 6:40pm 254 5 G 9 64° 43% - - 41° 71.5° 48.3° - - -
3/28 6:30pm 251 6 G 12 65° 43% - - 42° 71.5° 48.3° - - -
3/28 6:20pm 249 9 G 13 65° 42% - - 42° 71.5° 48.3° - - -
3/28 6:10pm 240 6 G 12 66° 43% - - 43° 71.5° 48.3° - - -
3/28 6:00pm 250 8 G 17 66° 43% - - 43° 71.5° 48.3° - - -
3/28 5:50pm 253 9 G 17 67° 42% - - 43° 71.5° 48.3° - - -
3/28 5:40pm 240 9 G 14 67° 42% - - 43° 71.5° 48.3° - - -
3/28 5:30pm 238 11 G 17 67° 42% - - 43° 71.5° 48.3° - - -
3/28 5:20pm 234 11 G 16 68° 40% - - 43° 71.5° 48.3° - - -
3/28 5:10pm 236 12 G 18 68° 40% - - 43° 71.5° 48.3° - - -
3/28 5:00pm 237 12 G 17 68° 40% - - 43° 71.5° 48.3° - - -
3/28 4:50pm 237 13 G 17 68° 39% - - 42° 71.5° 48.3° - - -
3/28 4:40pm 236 12 G 17 68° 36% - - 40° 71.5° 48.3° - - -
3/28 4:30pm 238 13 G 17 69° 35% - - 40° 71.5° 48.3° - - -
3/28 4:20pm 237 12 G 17 69° 35% - - 40° 71.5° 48.3° - - -
3/28 4:10pm 235 11 G 17 69° 37% - - 41° 71.5° 48.3° - - -
3/28 4:00pm 241 12 G 17 69° 38% - - 42° 71.5° 48.3° - - -
3/28 3:50pm 241 11 G 17 69° 38% - - 42° 71.5° 48.3° - - -
3/28 3:40pm 241 12 G 18 69° 37% - - 41° 71.5° 48.3° - - -
3/28 3:30pm 234 12 G 18 70° 36% - - 41° 71.5° 48.3° - - -
3/28 3:20pm 243 11 G 17 69° 36% - - 41° 71.5° 48.3° - - -
3/28 3:10pm 239 12 G 19 69° 39% - - 43° 71.5° 48.3° - - -
3/28 3:00pm 238 13 G 19 70° 42% - - 46° 71.5° 48.3° - - -
3/28 2:50pm 237 8 G 14 70° 44% - - 47° 71.5° 48.3° - - -
3/28 2:40pm 253 8 G 15 70° 46% - - 48° 70.5° 48.3° - - -
3/28 2:30pm 263 5 G 11 70° 49% - - 49° 70.5° 48.3° - - -
3/28 2:20pm 235 9 G 15 69° 50% - - 50° 69.9° 48.3° - - -
3/28 2:10pm 240 8 G 16 69° 51% - - 50° 69.7° 48.3° - - -
3/28 2:00pm 249 9 G 15 69° 47% - - 48° 69.7° 48.3° - - -
3/28 1:50pm 241 7 G 13 69° 50% - - 49° 69.7° 48.3° - - -
3/28 1:40pm 245 8 G 14 69° 49% - - 49° 69.7° 48.3° - - -
3/28 1:30pm 259 7 G 14 68° 51% - - 49° 69.6° 48.3° - - -
3/28 1:20pm 243 9 G 15 68° 51% - - 49° 69.6° 48.3° - - -
3/28 1:10pm 243 8 G 14 68° 49% - - 49° 69.6° 48.3° - - -
3/28 1:00pm 239 8 G 16 69° 47% - - 48° 69.6° 48.3° - - -
3/28 12:50pm 270 6 G 12 68° 41% - - 44° 69.3° 48.3° - - -
3/28 12:40pm 274 5 G 10 68° 38% - - 42° 69.3° 48.3° - - -
3/28 12:30pm 281 5 G 10 67° 39% - - 41° 67.5° 48.3° - - -
3/28 12:20pm 268 6 G 11 67° 40% - - 41° 67.4° 48.3° - - -
3/28 12:10pm 272 6 G 10 66° 42% - - 42° 67° 48.3° - - -
3/28 12:00pm 279 4 G 9 66° 41% - - 42° 67° 48.3° - - -
3/28 11:50am 276 3 G 7 66° 41% - - 42° 66.6° 48.3° - - -
3/28 11:40am 276 3 G 7 66° 40% - - 41° 66.6° 48.3° - - -
3/28 11:30am 286 3 G 8 65° 42% - - 42° 66° 48.3° - - -
3/28 11:20am 344 2 G 8 65° 43% - - 42° 65.8° 48.3° - - -
3/28 11:10am 262 2 G 6 64° 46% - - 43° 65.2° 48.3° - - -
3/28 11:00am 227 2 G 7 64° 46% - - 43° 64.8° 48.3° - - -
3/28 10:50am 229 4 G 8 64° 45% - - 43° 64.8° 48.3° - - -
3/28 10:40am 247 2 G 6 63° 51% - - 44° 63.5° 48.3° - - -
3/28 10:30am 282 3 G 8 61° 48% - - 42° 62.3° 48.3° - - -
3/28 10:20am 267 4 G 9 62° 52% - - 44° 62.3° 48.3° - - -
3/28 10:10am 303 2 G 4 61° 57% - - 45° 61.9° 48.3° - - -
3/28 10:00am 291 3 G 5 59° 59% - - 45° 60.2° 48.3° - - -
3/28 9:50am 319 2 G 5 58° 61% - - 45° 58.9° 48.3° - - -
3/28 9:40am 306 2 G 5 57° 62% - - 44° 57.8° 48.3° - - -
3/28 9:30am 297 3 G 5 57° 65% - - 45° 57.1° 48.3° - - -
3/28 9:20am 319 2 G 3 57° 68% - - 46° 56.9° 48.3° - - -
3/28 9:10am 9 2 G 3 56° 68% - - 45° 56.5° 48.3° - - -
3/28 9:00am 327 2 G 5 55° 72% - - 46° 56° 48.3° - - -
3/28 8:50am 0 0 G 0 55° 79% - - 49° 56° 48.3° - - -
3/28 8:40am 42 2 G 5 54° 82% - - 48° 54.9° 48.3° - - -
3/28 8:30am 41 5 G 7 53° 85% - - 48° 54.9° 48.3° - - -
3/28 8:20am 22 2 G 7 54° 86% - - 50° 54.9° 48.3° - - -
3/28 8:10am 47 2 G 3 53° 86% - - 49° 54.5° 48.3° - - -
3/28 8:00am 76 3 G 5 53° 84% - - 49° 54.5° 48.3° - - -
3/28 7:50am 118 6 G 8 53° 84% - - 49° 54.1° 48.3° - - -
3/28 7:40am 122 5 G 8 52° 90% - - 49° 53.6° 48.3° - - -
3/28 7:30am 98 4 G 7 51° 88% - - 48° 53.6° 48.3° - - -
3/28 7:20am 93 5 G 7 51° 86% - - 47° 53.6° 48.3° - - -
3/28 7:10am 88 4 G 6 51° 87% - - 47° 53.6° 48.3° - - -
3/28 7:00am 124 4 G 6 50° 88% - - 47° 53.6° 48.3° - - -
3/28 6:50am 122 3 G 5 49° 90% - - 47° 53.6° 48.3° - - -
3/28 6:40am 79 2 G 4 49° 96% - - 48° 53.6° 48.3° - - -
3/28 6:30am 169 1 G 3 49° 99% - - 48° 53.6° 48.3° - - -
3/28 6:20am 89 1 G 4 49° 98% - - 48° 53.6° 48.4° - - -
3/28 6:10am 71 1 G 6 49° 99% - - 49° 53.6° 48.4° - - -
3/28 6:00am 179 1 G 4 49° 99% - - 48° 53.6° 48.4° - - -